Fortune Hero — 3FSL9 — position and weather

sailwx.info

Track history (hours):
 
Tides and Currents Weather Stations Pressure Air Temp Water Temp Dewpoint Dewpoint Depression Visibility Wind Speed Wind Dir Waves Ship Positions

Fortune Hero

Last reported at 2018-Jun-06 14:04 UTC. Time now 2018-Jun-24 20:29 UTC.
Position N 01°23' E 104°26'.
Warning: this ship's position is 18 days out of date.

Length 180 m; draft 6.8 m.

Type: Cargo ship. MMSI: 353210000.

Date/timePositionNaut miles runAvg speedWind from/ knotsBaromVisibWave heightAir tempDewpointWater temp
2018-Jun-06 14:04N 01°23' E 104°26'413.5
2018-Jun-06 13:44N 01°20' E 104°23'313.1
2018-Jun-06 13:30N 01°17' E 104°20'812.7
2018-Jun-06 12:51N 01°16' E 104°13'612.1
2018-Jun-06 12:19N 01°15' E 104°06'310.3
2018-Jun-06 12:00N 01°15' E 104°03'4 8.2
2018-Jun-06 11:30N 01°17' E 103°59'0 0.1
2018-Jun-06 10:23N 01°17' E 103°59'0 0.1
2018-Jun-06 09:50N 01°17' E 103°59'0 0.0
2018-Jun-06 07:47N 01°17' E 103°59'0 0.0
2018-Jun-06 05:47N 01°17' E 103°59'0 0.0
2018-Jun-06 05:26N 01°17' E 103°59'0 0.1
2018-Jun-06 04:05N 01°17' E 103°59'0 0.2
2018-Jun-06 03:50N 01°17' E 103°59'0 0.1
2018-Jun-06 03:25N 01°17' E 103°59'1 2.0
2018-Jun-06 03:00N 01°17' E 104°00'2 4.7
2018-Jun-06 02:30N 01°15' E 103°58'3 5.7
2018-Jun-06 02:00N 01°14' E 103°56'4 7.6
2018-Jun-06 01:28N 01°12' E 103°52'3 5.4
2018-Jun-06 00:59N 01°11' E 103°50'4 9.1
2018-Jun-06 00:30N 01°08' E 103°47'510.4
2018-Jun-06 00:00N 01°05' E 103°43'610.9
2018-Jun-05 23:28N 01°04' E 103°37'613.0
2018-Jun-05 22:59N 01°07' E 103°31'612.4
2018-Jun-05 22:30N 01°10' E 103°26'712.5
2018-Jun-05 21:58N 01°14' E 103°21'712.5
2018-Jun-05 21:22N 01°19' E 103°15'  
Track history (hours):
 
Tides and Currents Weather Stations Pressure Air Temp Water Temp Dewpoint Dewpoint Depression Visibility Wind Speed Wind Dir Waves Ship Positions

Fortune Hero

Last reported at 2018-Jun-06 14:04 UTC. Time now 2018-Jun-24 20:29 UTC.
Position N 01°23' E 104°26'.
Warning: this ship's position is 18 days out of date.

Length 180 m; draft 6.8 m.

Type: Cargo ship. MMSI: 353210000.

Date/timePositionNaut miles runAvg speedWind from/ knotsBaromVisibWave heightAir tempDewpointWater temp
2018-Jun-06 14:04N 01°23' E 104°26'413.5
2018-Jun-06 13:44N 01°20' E 104°23'313.1
2018-Jun-06 13:30N 01°17' E 104°20'812.7
2018-Jun-06 12:51N 01°16' E 104°13'612.1
2018-Jun-06 12:19N 01°15' E 104°06'310.3
2018-Jun-06 12:00N 01°15' E 104°03'4 8.2
2018-Jun-06 11:30N 01°17' E 103°59'0 0.1
2018-Jun-06 10:23N 01°17' E 103°59'0 0.1
2018-Jun-06 09:50N 01°17' E 103°59'0 0.0
2018-Jun-06 07:47N 01°17' E 103°59'0 0.0
2018-Jun-06 05:47N 01°17' E 103°59'0 0.0
2018-Jun-06 05:26N 01°17' E 103°59'0 0.1
2018-Jun-06 04:05N 01°17' E 103°59'0 0.2
2018-Jun-06 03:50N 01°17' E 103°59'0 0.1
2018-Jun-06 03:25N 01°17' E 103°59'1 2.0
2018-Jun-06 03:00N 01°17' E 104°00'2 4.7
2018-Jun-06 02:30N 01°15' E 103°58'3 5.7
2018-Jun-06 02:00N 01°14' E 103°56'4 7.6
2018-Jun-06 01:28N 01°12' E 103°52'3 5.4
2018-Jun-06 00:59N 01°11' E 103°50'4 9.1
2018-Jun-06 00:30N 01°08' E 103°47'510.4
2018-Jun-06 00:00N 01°05' E 103°43'610.9
2018-Jun-05 23:28N 01°04' E 103°37'613.0
2018-Jun-05 22:59N 01°07' E 103°31'612.4
2018-Jun-05 22:30N 01°10' E 103°26'712.5
2018-Jun-05 21:58N 01°14' E 103°21'712.5
2018-Jun-05 21:22N 01°19' E 103°15'  

Dump ship's entire track history